sensor_id;sensor_type;location;lat;lon;timestamp;temperature;humidity
2387;DHT22;49473;50.772;8.768;2023-04-25T00:01:03;8.50;99.90
2387;DHT22;49473;50.772;8.768;2023-04-25T00:03:30;8.50;99.90
2387;DHT22;49473;50.772;8.768;2023-04-25T00:05:58;8.50;99.90
2387;DHT22;49473;50.772;8.768;2023-04-25T00:08:28;8.60;99.90
2387;DHT22;49473;50.772;8.768;2023-04-25T00:10:55;8.50;99.90
2387;DHT22;49473;50.772;8.768;2023-04-25T00:13:22;8.50;99.90
2387;DHT22;49473;50.772;8.768;2023-04-25T00:15:51;8.50;99.90
2387;DHT22;49473;50.772;8.768;2023-04-25T00:18:18;8.50;99.90
2387;DHT22;49473;50.772;8.768;2023-04-25T00:20:45;8.40;99.90
2387;DHT22;49473;50.772;8.768;2023-04-25T00:23:14;8.30;99.90
2387;DHT22;49473;50.772;8.768;2023-04-25T00:25:43;8.30;99.90
2387;DHT22;49473;50.772;8.768;2023-04-25T00:28:10;8.30;99.90
2387;DHT22;49473;50.772;8.768;2023-04-25T00:30:36;8.20;99.90
2387;DHT22;49473;50.772;8.768;2023-04-25T00:33:03;8.20;99.90
2387;DHT22;49473;50.772;8.768;2023-04-25T00:35:30;8.20;99.90
2387;DHT22;49473;50.772;8.768;2023-04-25T00:37:57;8.10;99.90
2387;DHT22;49473;50.772;8.768;2023-04-25T00:40:26;8.10;99.90
2387;DHT22;49473;50.772;8.768;2023-04-25T00:42:53;8.10;99.90
2387;DHT22;49473;50.772;8.768;2023-04-25T00:45:20;7.90;99.90
2387;DHT22;49473;50.772;8.768;2023-04-25T00:47:47;7.90;99.90
2387;DHT22;49473;50.772;8.768;2023-04-25T00:50:14;7.90;99.90
2387;DHT22;49473;50.772;8.768;2023-04-25T00:52:43;7.90;99.90
2387;DHT22;49473;50.772;8.768;2023-04-25T00:55:11;7.80;99.90
2387;DHT22;49473;50.772;8.768;2023-04-25T00:57:40;7.80;99.90
2387;DHT22;49473;50.772;8.768;2023-04-25T01:00:08;7.70;99.90
2387;DHT22;49473;50.772;8.768;2023-04-25T01:02:36;7.70;99.90
2387;DHT22;49473;50.772;8.768;2023-04-25T01:05:03;7.60;99.90
2387;DHT22;49473;50.772;8.768;2023-04-25T01:07:30;7.60;99.90
2387;DHT22;49473;50.772;8.768;2023-04-25T01:09:58;7.60;99.90
2387;DHT22;49473;50.772;8.768;2023-04-25T01:12:24;7.60;99.90
2387;DHT22;49473;50.772;8.768;2023-04-25T01:14:53;7.40;99.90
2387;DHT22;49473;50.772;8.768;2023-04-25T01:17:19;7.40;99.90
2387;DHT22;49473;50.772;8.768;2023-04-25T01:19:46;7.40;99.90
2387;DHT22;49473;50.772;8.768;2023-04-25T01:22:16;7.30;99.90
2387;DHT22;49473;50.772;8.768;2023-04-25T01:24:43;7.30;99.90
2387;DHT22;49473;50.772;8.768;2023-04-25T01:27:10;7.30;99.90
2387;DHT22;49473;50.772;8.768;2023-04-25T01:29:38;7.20;99.90
2387;DHT22;49473;50.772;8.768;2023-04-25T01:32:05;7.20;99.90
2387;DHT22;49473;50.772;8.768;2023-04-25T01:34:32;7.10;99.90
2387;DHT22;49473;50.772;8.768;2023-04-25T01:37:00;7.10;99.90
2387;DHT22;49473;50.772;8.768;2023-04-25T01:39:28;7.10;99.90
2387;DHT22;49473;50.772;8.768;2023-04-25T01:41:55;7.00;99.90
2387;DHT22;49473;50.772;8.768;2023-04-25T01:44:22;7.00;99.90
2387;DHT22;49473;50.772;8.768;2023-04-25T01:46:49;7.00;99.90
2387;DHT22;49473;50.772;8.768;2023-04-25T01:49:15;7.00;99.90
2387;DHT22;49473;50.772;8.768;2023-04-25T01:51:42;6.90;99.90
2387;DHT22;49473;50.772;8.768;2023-04-25T01:54:10;6.90;99.90
2387;DHT22;49473;50.772;8.768;2023-04-25T01:56:39;6.80;99.90
2387;DHT22;49473;50.772;8.768;2023-04-25T01:59:06;6.70;99.90
2387;DHT22;49473;50.772;8.768;2023-04-25T02:01:32;6.70;99.90
2387;DHT22;49473;50.772;8.768;2023-04-25T02:03:59;6.70;99.90
2387;DHT22;49473;50.772;8.768;2023-04-25T02:06:26;6.60;99.90
2387;DHT22;49473;50.772;8.768;2023-04-25T02:08:53;6.70;99.90
2387;DHT22;49473;50.772;8.768;2023-04-25T02:11:19;6.60;99.90
2387;DHT22;49473;50.772;8.768;2023-04-25T02:13:47;6.60;99.90
2387;DHT22;49473;50.772;8.768;2023-04-25T02:16:14;6.60;99.90
2387;DHT22;49473;50.772;8.768;2023-04-25T02:18:41;6.50;99.90
2387;DHT22;49473;50.772;8.768;2023-04-25T02:21:08;6.50;99.90
2387;DHT22;49473;50.772;8.768;2023-04-25T02:23:35;6.50;99.90
2387;DHT22;49473;50.772;8.768;2023-04-25T02:26:02;6.50;99.90
2387;DHT22;49473;50.772;8.768;2023-04-25T02:28:28;6.50;99.90
2387;DHT22;49473;50.772;8.768;2023-04-25T02:30:57;6.40;99.90
2387;DHT22;49473;50.772;8.768;2023-04-25T02:33:23;6.40;99.90
2387;DHT22;49473;50.772;8.768;2023-04-25T02:35:50;6.30;99.90
2387;DHT22;49473;50.772;8.768;2023-04-25T02:38:17;6.30;99.90
2387;DHT22;49473;50.772;8.768;2023-04-25T02:40:44;6.30;99.90
2387;DHT22;49473;50.772;8.768;2023-04-25T02:43:11;6.30;99.90
2387;DHT22;49473;50.772;8.768;2023-04-25T02:45:37;6.20;99.90
2387;DHT22;49473;50.772;8.768;2023-04-25T02:48:06;6.20;99.90
2387;DHT22;49473;50.772;8.768;2023-04-25T02:50:32;6.30;99.90
2387;DHT22;49473;50.772;8.768;2023-04-25T02:52:59;6.30;99.90
2387;DHT22;49473;50.772;8.768;2023-04-25T02:55:26;6.30;99.90
2387;DHT22;49473;50.772;8.768;2023-04-25T02:57:53;6.30;99.90
2387;DHT22;49473;50.772;8.768;2023-04-25T03:00:20;6.30;99.90
2387;DHT22;49473;50.772;8.768;2023-04-25T03:02:47;6.40;99.90
2387;DHT22;49473;50.772;8.768;2023-04-25T03:05:15;6.50;99.90
2387;DHT22;49473;50.772;8.768;2023-04-25T03:07:43;6.50;99.90
2387;DHT22;49473;50.772;8.768;2023-04-25T03:10:11;6.60;99.90
2387;DHT22;49473;50.772;8.768;2023-04-25T03:12:38;6.60;99.90
2387;DHT22;49473;50.772;8.768;2023-04-25T03:15:05;6.60;99.90
2387;DHT22;49473;50.772;8.768;2023-04-25T03:17:33;6.60;99.90
2387;DHT22;49473;50.772;8.768;2023-04-25T03:20:01;6.60;99.90
2387;DHT22;49473;50.772;8.768;2023-04-25T03:22:30;6.50;99.90
2387;DHT22;49473;50.772;8.768;2023-04-25T03:24:57;6.50;99.90
2387;DHT22;49473;50.772;8.768;2023-04-25T03:27:24;6.50;99.90
2387;DHT22;49473;50.772;8.768;2023-04-25T03:29:51;6.50;99.90
2387;DHT22;49473;50.772;8.768;2023-04-25T03:32:17;6.50;99.90
2387;DHT22;49473;50.772;8.768;2023-04-25T03:34:44;6.50;99.90
2387;DHT22;49473;50.772;8.768;2023-04-25T03:37:11;6.60;99.90
2387;DHT22;49473;50.772;8.768;2023-04-25T03:39:39;6.60;99.90
2387;DHT22;49473;50.772;8.768;2023-04-25T03:42:06;6.70;99.90
2387;DHT22;49473;50.772;8.768;2023-04-25T03:44:32;6.70;99.90
2387;DHT22;49473;50.772;8.768;2023-04-25T03:46:59;6.70;99.90
2387;DHT22;49473;50.772;8.768;2023-04-25T03:49:26;6.60;99.90
2387;DHT22;49473;50.772;8.768;2023-04-25T03:51:52;6.60;99.90
2387;DHT22;49473;50.772;8.768;2023-04-25T03:54:19;6.40;99.90
2387;DHT22;49473;50.772;8.768;2023-04-25T03:56:47;6.40;99.90
2387;DHT22;49473;50.772;8.768;2023-04-25T03:59:14;6.40;99.90
2387;DHT22;49473;50.772;8.768;2023-04-25T04:01:41;6.30;99.90
2387;DHT22;49473;50.772;8.768;2023-04-25T04:04:07;6.40;99.90
2387;DHT22;49473;50.772;8.768;2023-04-25T04:06:34;6.40;99.90
2387;DHT22;49473;50.772;8.768;2023-04-25T04:09:01;6.40;99.90
2387;DHT22;49473;50.772;8.768;2023-04-25T04:11:28;6.40;99.90
2387;DHT22;49473;50.772;8.768;2023-04-25T04:13:58;6.40;99.90
2387;DHT22;49473;50.772;8.768;2023-04-25T04:16:24;6.40;99.90
2387;DHT22;49473;50.772;8.768;2023-04-25T04:18:51;6.40;99.90
2387;DHT22;49473;50.772;8.768;2023-04-25T04:21:18;6.50;99.90
2387;DHT22;49473;50.772;8.768;2023-04-25T04:23:45;6.50;99.90
2387;DHT22;49473;50.772;8.768;2023-04-25T04:26:11;6.60;99.90
2387;DHT22;49473;50.772;8.768;2023-04-25T04:28:38;6.60;99.90
2387;DHT22;49473;50.772;8.768;2023-04-25T04:31:06;6.60;99.90
2387;DHT22;49473;50.772;8.768;2023-04-25T04:33:34;6.50;99.90
2387;DHT22;49473;50.772;8.768;2023-04-25T04:36:02;6.60;99.90
2387;DHT22;49473;50.772;8.768;2023-04-25T04:38:29;6.60;99.90
2387;DHT22;49473;50.772;8.768;2023-04-25T04:40:57;6.60;99.90
2387;DHT22;49473;50.772;8.768;2023-04-25T04:43:24;6.70;99.90
2387;DHT22;49473;50.772;8.768;2023-04-25T04:45:51;6.70;99.90
2387;DHT22;49473;50.772;8.768;2023-04-25T04:48:19;6.70;99.90
2387;DHT22;49473;50.772;8.768;2023-04-25T04:50:47;6.80;99.90
2387;DHT22;49473;50.772;8.768;2023-04-25T04:53:13;6.80;99.90
2387;DHT22;49473;50.772;8.768;2023-04-25T04:55:40;6.90;99.90
2387;DHT22;49473;50.772;8.768;2023-04-25T04:58:08;7.00;99.90
2387;DHT22;49473;50.772;8.768;2023-04-25T05:00:35;7.00;99.90
2387;DHT22;49473;50.772;8.768;2023-04-25T05:03:02;7.10;99.90
2387;DHT22;49473;50.772;8.768;2023-04-25T05:05:30;7.20;99.90
2387;DHT22;49473;50.772;8.768;2023-04-25T05:07:57;7.20;99.90
2387;DHT22;49473;50.772;8.768;2023-04-25T05:10:23;7.20;99.90
2387;DHT22;49473;50.772;8.768;2023-04-25T05:12:50;7.30;99.90
2387;DHT22;49473;50.772;8.768;2023-04-25T05:15:17;7.20;99.90
2387;DHT22;49473;50.772;8.768;2023-04-25T05:17:44;7.30;99.90
2387;DHT22;49473;50.772;8.768;2023-04-25T05:20:11;7.40;99.90
2387;DHT22;49473;50.772;8.768;2023-04-25T05:22:40;7.30;99.90
2387;DHT22;49473;50.772;8.768;2023-04-25T05:25:08;7.30;99.90
2387;DHT22;49473;50.772;8.768;2023-04-25T05:27:35;7.30;99.90
2387;DHT22;49473;50.772;8.768;2023-04-25T05:30:03;7.30;99.90
2387;DHT22;49473;50.772;8.768;2023-04-25T05:32:30;7.40;99.90
2387;DHT22;49473;50.772;8.768;2023-04-25T05:34:57;7.50;99.90
2387;DHT22;49473;50.772;8.768;2023-04-25T05:37:23;7.60;99.90
2387;DHT22;49473;50.772;8.768;2023-04-25T05:39:51;7.90;99.90
2387;DHT22;49473;50.772;8.768;2023-04-25T05:42:20;8.10;99.90
2387;DHT22;49473;50.772;8.768;2023-04-25T05:44:46;8.20;99.90
2387;DHT22;49473;50.772;8.768;2023-04-25T05:47:13;8.50;99.90
2387;DHT22;49473;50.772;8.768;2023-04-25T05:49:40;8.90;99.90
2387;DHT22;49473;50.772;8.768;2023-04-25T05:52:07;9.40;99.90
2387;DHT22;49473;50.772;8.768;2023-04-25T05:54:34;9.60;99.90
2387;DHT22;49473;50.772;8.768;2023-04-25T05:57:02;9.70;99.90
2387;DHT22;49473;50.772;8.768;2023-04-25T05:59:29;9.20;99.90
2387;DHT22;49473;50.772;8.768;2023-04-25T06:01:55;8.90;99.90
2387;DHT22;49473;50.772;8.768;2023-04-25T06:04:22;8.60;99.90
2387;DHT22;49473;50.772;8.768;2023-04-25T06:06:49;8.50;99.90
2387;DHT22;49473;50.772;8.768;2023-04-25T06:09:15;8.40;99.90
2387;DHT22;49473;50.772;8.768;2023-04-25T06:11:42;8.20;99.90
2387;DHT22;49473;50.772;8.768;2023-04-25T06:14:10;8.10;99.90
2387;DHT22;49473;50.772;8.768;2023-04-25T06:16:37;7.90;99.90
2387;DHT22;49473;50.772;8.768;2023-04-25T06:19:04;8.20;99.90
2387;DHT22;49473;50.772;8.768;2023-04-25T06:21:30;8.80;99.90
2387;DHT22;49473;50.772;8.768;2023-04-25T06:23:57;9.50;99.90
2387;DHT22;49473;50.772;8.768;2023-04-25T06:26:24;10.50;99.90
2387;DHT22;49473;50.772;8.768;2023-04-25T06:28:51;11.20;99.90
2387;DHT22;49473;50.772;8.768;2023-04-25T06:31:19;11.50;99.90
2387;DHT22;49473;50.772;8.768;2023-04-25T06:33:46;11.40;99.90
2387;DHT22;49473;50.772;8.768;2023-04-25T06:36:13;11.20;99.90
2387;DHT22;49473;50.772;8.768;2023-04-25T06:38:40;11.70;99.90
2387;DHT22;49473;50.772;8.768;2023-04-25T06:41:07;12.20;99.90
2387;DHT22;49473;50.772;8.768;2023-04-25T06:43:33;12.50;99.90
2387;DHT22;49473;50.772;8.768;2023-04-25T06:46:00;12.90;99.90
2387;DHT22;49473;50.772;8.768;2023-04-25T06:48:29;13.20;99.90
2387;DHT22;49473;50.772;8.768;2023-04-25T06:50:55;12.80;99.90
2387;DHT22;49473;50.772;8.768;2023-04-25T06:53:22;12.60;99.90
2387;DHT22;49473;50.772;8.768;2023-04-25T06:55:49;11.90;99.90
2387;DHT22;49473;50.772;8.768;2023-04-25T06:58:16;11.90;99.90
2387;DHT22;49473;50.772;8.768;2023-04-25T07:00:44;11.50;99.90
2387;DHT22;49473;50.772;8.768;2023-04-25T07:03:11;11.10;99.90
2387;DHT22;49473;50.772;8.768;2023-04-25T07:05:39;10.80;99.90
2387;DHT22;49473;50.772;8.768;2023-04-25T07:08:06;10.40;99.90
2387;DHT22;49473;50.772;8.768;2023-04-25T07:10:33;10.20;99.90
2387;DHT22;49473;50.772;8.768;2023-04-25T07:13:00;10.20;99.90
2387;DHT22;49473;50.772;8.768;2023-04-25T07:15:27;10.10;99.90
2387;DHT22;49473;50.772;8.768;2023-04-25T07:17:53;9.90;99.90
2387;DHT22;49473;50.772;8.768;2023-04-25T07:20:20;9.90;99.90
2387;DHT22;49473;50.772;8.768;2023-04-25T07:22:48;10.10;99.90
2387;DHT22;49473;50.772;8.768;2023-04-25T07:25:15;10.30;99.90
2387;DHT22;49473;50.772;8.768;2023-04-25T07:27:42;10.50;99.90
2387;DHT22;49473;50.772;8.768;2023-04-25T07:30:10;10.70;99.90
2387;DHT22;49473;50.772;8.768;2023-04-25T07:32:38;11.40;99.90
2387;DHT22;49473;50.772;8.768;2023-04-25T07:35:05;12.30;99.90
2387;DHT22;49473;50.772;8.768;2023-04-25T07:37:32;13.30;99.90
2387;DHT22;49473;50.772;8.768;2023-04-25T07:40:01;13.90;99.90
2387;DHT22;49473;50.772;8.768;2023-04-25T07:42:29;14.60;99.90
2387;DHT22;49473;50.772;8.768;2023-04-25T07:44:56;15.10;99.90
2387;DHT22;49473;50.772;8.768;2023-04-25T07:47:22;14.70;99.90
2387;DHT22;49473;50.772;8.768;2023-04-25T07:49:50;14.30;99.90
2387;DHT22;49473;50.772;8.768;2023-04-25T07:52:16;13.50;99.90
2387;DHT22;49473;50.772;8.768;2023-04-25T07:54:43;12.70;99.90
2387;DHT22;49473;50.772;8.768;2023-04-25T07:57:11;12.40;99.90
2387;DHT22;49473;50.772;8.768;2023-04-25T07:59:39;12.20;99.90
2387;DHT22;49473;50.772;8.768;2023-04-25T08:02:06;11.60;99.90
2387;DHT22;49473;50.772;8.768;2023-04-25T08:04:33;11.50;99.90
2387;DHT22;49473;50.772;8.768;2023-04-25T08:07:00;11.30;99.90
2387;DHT22;49473;50.772;8.768;2023-04-25T08:09:26;11.20;99.90
2387;DHT22;49473;50.772;8.768;2023-04-25T08:11:54;11.20;99.90
2387;DHT22;49473;50.772;8.768;2023-04-25T08:14:23;11.20;99.90
2387;DHT22;49473;50.772;8.768;2023-04-25T08:16:49;11.10;99.90
2387;DHT22;49473;50.772;8.768;2023-04-25T08:19:16;11.10;99.90
2387;DHT22;49473;50.772;8.768;2023-04-25T08:21:43;11.00;99.90
2387;DHT22;49473;50.772;8.768;2023-04-25T08:24:09;10.80;99.90
2387;DHT22;49473;50.772;8.768;2023-04-25T08:26:36;10.40;99.90
2387;DHT22;49473;50.772;8.768;2023-04-25T08:29:04;10.10;99.90
2387;DHT22;49473;50.772;8.768;2023-04-25T08:31:33;9.80;99.90
2387;DHT22;49473;50.772;8.768;2023-04-25T08:33:59;9.60;99.90
2387;DHT22;49473;50.772;8.768;2023-04-25T08:36:26;9.40;99.90
2387;DHT22;49473;50.772;8.768;2023-04-25T08:38:54;9.00;99.90
2387;DHT22;49473;50.772;8.768;2023-04-25T08:41:21;8.90;99.90
2387;DHT22;49473;50.772;8.768;2023-04-25T08:43:48;9.10;99.90
2387;DHT22;49473;50.772;8.768;2023-04-25T08:46:18;9.40;99.90
2387;DHT22;49473;50.772;8.768;2023-04-25T08:48:47;9.40;99.90
2387;DHT22;49473;50.772;8.768;2023-04-25T08:51:20;9.70;99.90
2387;DHT22;49473;50.772;8.768;2023-04-25T08:53:49;10.10;99.90
2387;DHT22;49473;50.772;8.768;2023-04-25T08:56:17;10.20;99.90
2387;DHT22;49473;50.772;8.768;2023-04-25T08:58:47;10.20;99.90
2387;DHT22;49473;50.772;8.768;2023-04-25T09:01:14;10.30;99.90
2387;DHT22;49473;50.772;8.768;2023-04-25T09:03:42;10.30;99.90
2387;DHT22;49473;50.772;8.768;2023-04-25T09:06:10;10.20;99.90
2387;DHT22;49473;50.772;8.768;2023-04-25T09:08:37;10.00;99.90
2387;DHT22;49473;50.772;8.768;2023-04-25T09:11:06;10.00;99.90
2387;DHT22;49473;50.772;8.768;2023-04-25T09:13:33;10.10;99.90
2387;DHT22;49473;50.772;8.768;2023-04-25T09:16:00;10.10;99.90
2387;DHT22;49473;50.772;8.768;2023-04-25T09:18:28;10.30;99.90
2387;DHT22;49473;50.772;8.768;2023-04-25T09:20:56;10.60;99.90
2387;DHT22;49473;50.772;8.768;2023-04-25T09:23:24;10.90;99.90
2387;DHT22;49473;50.772;8.768;2023-04-25T09:25:53;11.20;99.90
2387;DHT22;49473;50.772;8.768;2023-04-25T09:28:23;11.30;99.90
2387;DHT22;49473;50.772;8.768;2023-04-25T09:30:55;11.40;99.90
2387;DHT22;49473;50.772;8.768;2023-04-25T09:33:27;12.10;99.90
2387;DHT22;49473;50.772;8.768;2023-04-25T09:36:02;12.50;99.90
2387;DHT22;49473;50.772;8.768;2023-04-25T09:38:31;12.50;99.90
2387;DHT22;49473;50.772;8.768;2023-04-25T09:40:58;12.60;99.90
2387;DHT22;49473;50.772;8.768;2023-04-25T09:43:26;12.80;99.90
2387;DHT22;49473;50.772;8.768;2023-04-25T09:45:54;13.00;99.90
2387;DHT22;49473;50.772;8.768;2023-04-25T09:48:23;12.70;99.90
2387;DHT22;49473;50.772;8.768;2023-04-25T09:51:04;12.60;99.90
2387;DHT22;49473;50.772;8.768;2023-04-25T09:53:33;12.50;99.90
2387;DHT22;49473;50.772;8.768;2023-04-25T09:56:00;12.40;99.90
2387;DHT22;49473;50.772;8.768;2023-04-25T09:58:31;12.30;99.90
2387;DHT22;49473;50.772;8.768;2023-04-25T10:01:00;12.00;99.90
2387;DHT22;49473;50.772;8.768;2023-04-25T10:03:30;11.80;99.90
2387;DHT22;49473;50.772;8.768;2023-04-25T10:05:59;11.60;99.90
2387;DHT22;49473;50.772;8.768;2023-04-25T10:08:31;11.20;99.90
2387;DHT22;49473;50.772;8.768;2023-04-25T10:11:00;11.00;99.90
2387;DHT22;49473;50.772;8.768;2023-04-25T10:13:29;10.90;99.90
2387;DHT22;49473;50.772;8.768;2023-04-25T10:15:57;10.80;99.90
2387;DHT22;49473;50.772;8.768;2023-04-25T10:18:25;11.00;99.90
2387;DHT22;49473;50.772;8.768;2023-04-25T10:20:53;11.50;99.90
2387;DHT22;49473;50.772;8.768;2023-04-25T10:23:20;12.50;99.90
2387;DHT22;49473;50.772;8.768;2023-04-25T10:25:47;13.20;99.90
2387;DHT22;49473;50.772;8.768;2023-04-25T10:28:16;13.30;99.90
2387;DHT22;49473;50.772;8.768;2023-04-25T10:30:57;13.10;99.90
2387;DHT22;49473;50.772;8.768;2023-04-25T10:33:32;12.90;99.90
2387;DHT22;49473;50.772;8.768;2023-04-25T10:36:09;12.50;99.90
2387;DHT22;49473;50.772;8.768;2023-04-25T10:38:36;12.00;99.90
2387;DHT22;49473;50.772;8.768;2023-04-25T10:41:04;11.60;99.90
2387;DHT22;49473;50.772;8.768;2023-04-25T10:43:36;11.30;99.90
2387;DHT22;49473;50.772;8.768;2023-04-25T10:46:22;11.00;99.90
2387;DHT22;49473;50.772;8.768;2023-04-25T10:48:50;10.90;99.90
2387;DHT22;49473;50.772;8.768;2023-04-25T10:51:20;10.80;99.90
2387;DHT22;49473;50.772;8.768;2023-04-25T10:53:47;10.70;99.90
2387;DHT22;49473;50.772;8.768;2023-04-25T10:56:25;10.70;99.90
2387;DHT22;49473;50.772;8.768;2023-04-25T10:59:04;11.00;99.90
2387;DHT22;49473;50.772;8.768;2023-04-25T11:01:36;11.50;99.90
2387;DHT22;49473;50.772;8.768;2023-04-25T11:04:03;11.90;99.90
2387;DHT22;49473;50.772;8.768;2023-04-25T11:06:37;12.30;99.90
2387;DHT22;49473;50.772;8.768;2023-04-25T11:09:10;13.00;99.90
2387;DHT22;49473;50.772;8.768;2023-04-25T11:11:39;13.60;99.90
2387;DHT22;49473;50.772;8.768;2023-04-25T11:14:07;13.60;99.90
2387;DHT22;49473;50.772;8.768;2023-04-25T11:16:33;13.70;99.90
2387;DHT22;49473;50.772;8.768;2023-04-25T11:19:01;13.80;99.90
2387;DHT22;49473;50.772;8.768;2023-04-25T11:21:30;13.40;98.60
2387;DHT22;49473;50.772;8.768;2023-04-25T11:23:57;13.70;99.90
2387;DHT22;49473;50.772;8.768;2023-04-25T11:26:24;15.00;98.60
2387;DHT22;49473;50.772;8.768;2023-04-25T11:28:51;16.10;96.10
2387;DHT22;49473;50.772;8.768;2023-04-25T11:31:21;16.40;95.60
2387;DHT22;49473;50.772;8.768;2023-04-25T11:33:48;16.00;90.70
2387;DHT22;49473;50.772;8.768;2023-04-25T11:36:15;14.70;91.10
2387;DHT22;49473;50.772;8.768;2023-04-25T11:38:42;14.20;91.60
2387;DHT22;49473;50.772;8.768;2023-04-25T11:41:08;14.10;94.20
2387;DHT22;49473;50.772;8.768;2023-04-25T11:43:35;13.80;93.40
2387;DHT22;49473;50.772;8.768;2023-04-25T11:46:06;13.00;94.80
2387;DHT22;49473;50.772;8.768;2023-04-25T11:48:38;12.40;95.60
2387;DHT22;49473;50.772;8.768;2023-04-25T11:51:05;11.90;95.70
2387;DHT22;49473;50.772;8.768;2023-04-25T11:53:32;11.50;97.30
2387;DHT22;49473;50.772;8.768;2023-04-25T11:55:59;11.20;98.00
2387;DHT22;49473;50.772;8.768;2023-04-25T11:58:26;10.80;98.20
2387;DHT22;49473;50.772;8.768;2023-04-25T12:00:53;10.80;99.90
2387;DHT22;49473;50.772;8.768;2023-04-25T12:03:24;10.70;99.90
2387;DHT22;49473;50.772;8.768;2023-04-25T12:06:02;10.70;99.90
2387;DHT22;49473;50.772;8.768;2023-04-25T12:08:30;10.80;99.90
2387;DHT22;49473;50.772;8.768;2023-04-25T12:10:58;10.90;99.90
2387;DHT22;49473;50.772;8.768;2023-04-25T12:13:25;11.10;99.90
2387;DHT22;49473;50.772;8.768;2023-04-25T12:15:55;11.00;99.00
2387;DHT22;49473;50.772;8.768;2023-04-25T12:18:23;10.80;99.50
2387;DHT22;49473;50.772;8.768;2023-04-25T12:20:54;10.70;99.70
2387;DHT22;49473;50.772;8.768;2023-04-25T12:23:25;10.80;99.90
2387;DHT22;49473;50.772;8.768;2023-04-25T12:25:53;10.80;99.90
2387;DHT22;49473;50.772;8.768;2023-04-25T12:28:21;10.80;99.90
2387;DHT22;49473;50.772;8.768;2023-04-25T12:30:53;10.80;99.90
2387;DHT22;49473;50.772;8.768;2023-04-25T12:33:20;10.70;99.90
2387;DHT22;49473;50.772;8.768;2023-04-25T12:35:47;10.70;99.90
2387;DHT22;49473;50.772;8.768;2023-04-25T12:38:22;10.90;99.90
2387;DHT22;49473;50.772;8.768;2023-04-25T12:40:49;11.00;99.00
2387;DHT22;49473;50.772;8.768;2023-04-25T12:43:16;11.00;99.50
2387;DHT22;49473;50.772;8.768;2023-04-25T12:45:43;11.10;99.90
2387;DHT22;49473;50.772;8.768;2023-04-25T12:48:10;11.20;97.40
2387;DHT22;49473;50.772;8.768;2023-04-25T12:50:36;11.30;98.70
2387;DHT22;49473;50.772;8.768;2023-04-25T12:53:03;11.40;96.80
2387;DHT22;49473;50.772;8.768;2023-04-25T12:55:31;11.30;96.40
2387;DHT22;49473;50.772;8.768;2023-04-25T12:57:58;12.40;96.70
2387;DHT22;49473;50.772;8.768;2023-04-25T13:00:25;12.80;96.90
2387;DHT22;49473;50.772;8.768;2023-04-25T13:02:52;12.80;96.50
2387;DHT22;49473;50.772;8.768;2023-04-25T13:05:19;12.60;96.00
2387;DHT22;49473;50.772;8.768;2023-04-25T13:07:46;12.30;95.40
2387;DHT22;49473;50.772;8.768;2023-04-25T13:10:13;11.90;94.90
2387;DHT22;49473;50.772;8.768;2023-04-25T13:12:42;11.60;95.90
2387;DHT22;49473;50.772;8.768;2023-04-25T13:15:09;11.40;95.60
2387;DHT22;49473;50.772;8.768;2023-04-25T13:17:36;11.30;95.50
2387;DHT22;49473;50.772;8.768;2023-04-25T13:20:05;11.40;97.00
2387;DHT22;49473;50.772;8.768;2023-04-25T13:22:35;13.50;96.00
2387;DHT22;49473;50.772;8.768;2023-04-25T13:25:03;16.00;91.30
2387;DHT22;49473;50.772;8.768;2023-04-25T13:27:30;18.20;86.50
2387;DHT22;49473;50.772;8.768;2023-04-25T13:30:00;19.70;74.30
2387;DHT22;49473;50.772;8.768;2023-04-25T13:32:30;20.60;70.50
2387;DHT22;49473;50.772;8.768;2023-04-25T13:34:57;19.50;70.30
2387;DHT22;49473;50.772;8.768;2023-04-25T13:37:23;17.70;71.20
2387;DHT22;49473;50.772;8.768;2023-04-25T13:39:50;16.10;73.60
2387;DHT22;49473;50.772;8.768;2023-04-25T13:42:17;14.50;75.60
2387;DHT22;49473;50.772;8.768;2023-04-25T13:44:44;13.60;82.60
2387;DHT22;49473;50.772;8.768;2023-04-25T13:47:12;12.30;78.60
2387;DHT22;49473;50.772;8.768;2023-04-25T13:49:39;11.50;77.10
2387;DHT22;49473;50.772;8.768;2023-04-25T13:52:05;11.40;79.40
2387;DHT22;49473;50.772;8.768;2023-04-25T13:54:33;11.60;83.70
2387;DHT22;49473;50.772;8.768;2023-04-25T13:57:00;11.80;81.90
2387;DHT22;49473;50.772;8.768;2023-04-25T13:59:27;11.90;81.90
2387;DHT22;49473;50.772;8.768;2023-04-25T14:01:54;12.00;81.90
2387;DHT22;49473;50.772;8.768;2023-04-25T14:04:22;12.10;81.70
2387;DHT22;49473;50.772;8.768;2023-04-25T14:06:49;12.30;83.40
2387;DHT22;49473;50.772;8.768;2023-04-25T14:09:16;12.60;80.80
2387;DHT22;49473;50.772;8.768;2023-04-25T14:11:43;12.40;81.00
2387;DHT22;49473;50.772;8.768;2023-04-25T14:14:10;12.60;84.20
2387;DHT22;49473;50.772;8.768;2023-04-25T14:16:37;12.60;77.70
2387;DHT22;49473;50.772;8.768;2023-04-25T14:19:04;12.80;81.20
2387;DHT22;49473;50.772;8.768;2023-04-25T14:21:32;12.90;80.10
2387;DHT22;49473;50.772;8.768;2023-04-25T14:23:59;13.40;81.30
2387;DHT22;49473;50.772;8.768;2023-04-25T14:26:26;13.60;76.80
2387;DHT22;49473;50.772;8.768;2023-04-25T14:28:52;13.40;77.50
2387;DHT22;49473;50.772;8.768;2023-04-25T14:31:19;13.00;77.90
2387;DHT22;49473;50.772;8.768;2023-04-25T14:33:46;12.80;80.30
2387;DHT22;49473;50.772;8.768;2023-04-25T14:36:13;12.20;82.70
2387;DHT22;49473;50.772;8.768;2023-04-25T14:38:41;11.80;86.30
2387;DHT22;49473;50.772;8.768;2023-04-25T14:41:08;11.40;88.80
2387;DHT22;49473;50.772;8.768;2023-04-25T14:43:37;11.20;89.90
2387;DHT22;49473;50.772;8.768;2023-04-25T14:46:05;11.30;90.90
2387;DHT22;49473;50.772;8.768;2023-04-25T14:48:32;11.60;90.40
2387;DHT22;49473;50.772;8.768;2023-04-25T14:50:59;11.60;88.20
2387;DHT22;49473;50.772;8.768;2023-04-25T14:53:27;11.60;88.20
2387;DHT22;49473;50.772;8.768;2023-04-25T14:55:56;11.40;87.70
2387;DHT22;49473;50.772;8.768;2023-04-25T14:58:23;11.40;89.20
2387;DHT22;49473;50.772;8.768;2023-04-25T15:00:50;11.30;88.00
2387;DHT22;49473;50.772;8.768;2023-04-25T15:03:17;11.30;89.90
2387;DHT22;49473;50.772;8.768;2023-04-25T15:05:44;11.40;90.60
2387;DHT22;49473;50.772;8.768;2023-04-25T15:08:10;11.50;89.40
2387;DHT22;49473;50.772;8.768;2023-04-25T15:10:37;11.60;88.40
2387;DHT22;49473;50.772;8.768;2023-04-25T15:13:05;12.00;90.10
2387;DHT22;49473;50.772;8.768;2023-04-25T15:15:33;12.10;88.70
2387;DHT22;49473;50.772;8.768;2023-04-25T15:18:00;12.20;86.10
2387;DHT22;49473;50.772;8.768;2023-04-25T15:20:27;12.40;88.70
2387;DHT22;49473;50.772;8.768;2023-04-25T15:22:54;12.50;87.70
2387;DHT22;49473;50.772;8.768;2023-04-25T15:25:21;12.60;84.30
2387;DHT22;49473;50.772;8.768;2023-04-25T15:27:47;12.70;83.80
2387;DHT22;49473;50.772;8.768;2023-04-25T15:30:17;12.60;83.50
2387;DHT22;49473;50.772;8.768;2023-04-25T15:32:45;12.40;85.50
2387;DHT22;49473;50.772;8.768;2023-04-25T15:35:13;12.20;84.20
2387;DHT22;49473;50.772;8.768;2023-04-25T15:37:40;12.00;87.40
2387;DHT22;49473;50.772;8.768;2023-04-25T15:40:09;11.60;86.80
2387;DHT22;49473;50.772;8.768;2023-04-25T15:42:36;11.50;89.40
2387;DHT22;49473;50.772;8.768;2023-04-25T15:45:05;11.40;90.50
2387;DHT22;49473;50.772;8.768;2023-04-25T15:47:34;11.30;88.00
2387;DHT22;49473;50.772;8.768;2023-04-25T15:50:03;11.40;87.90
2387;DHT22;49473;50.772;8.768;2023-04-25T15:52:31;11.40;85.70
2387;DHT22;49473;50.772;8.768;2023-04-25T15:54:57;11.30;88.00